Time;durP1;ratioP1;P1;durP2;ratioP2;P2;SDS_P1;SDS_P2;PMS_P1;PMS_P2;Temp;Humidity;BMP_temperature;BMP_pressure;BME280_temperature;BME280_humidity;BME280_pressure;Samples;Min_cycle;Max_cycle;Signal;HPM_P1;HPM_P2
2022/11/26 09:25:51;;;;;;;14.37;9.97;;;;;;;5.34;100.00;99558.28;5094254;23;20324;-86
2022/11/26 09:28:18;;;;;;;22.98;14.55;;;;;;;5.49;100.00;99564.91;4972977;28;20442;-84
2022/11/26 09:30:44;;;;;;;20.67;11.20;;;;;;;5.51;100.00;99561.31;4974979;28;20224;-85
2022/11/26 09:33:11;;;;;;;17.17;9.17;;;;;;;5.53;100.00;99561.28;4974648;28;20217;-84
2022/11/26 09:35:37;;;;;;;20.90;10.17;;;;;;;5.58;100.00;99560.25;4960910;28;20253;-83
2022/11/26 09:38:04;;;;;;;21.07;11.43;;;;;;;5.67;100.00;99567.03;4955194;28;20314;-84
2022/11/26 09:40:41;;;;;;;20.70;10.80;;;;;;;5.69;100.00;99568.69;4984592;23;20256;-80
2022/11/26 09:43:20;;;;;;;16.30;10.43;;;;;;;5.72;100.00;99571.22;4974883;28;20690;-80
2022/11/26 09:45:52;;;;;;;15.20;10.17;;;;;;;5.76;100.00;99574.63;4975119;28;20229;-80
2022/11/26 09:48:23;;;;;;;19.87;10.73;;;;;;;5.83;100.00;99577.09;4975201;28;20234;-80
2022/11/26 09:50:56;;;;;;;20.20;11.57;;;;;;;5.86;100.00;99584.03;4959268;28;20439;-79
2022/11/26 09:53:25;;;;;;;17.17;9.40;;;;;;;5.84;100.00;99578.81;4960805;28;20232;-80
2022/11/26 09:55:54;;;;;;;20.37;11.03;;;;;;;5.89;100.00;99579.53;4957235;29;20205;-78
2022/11/26 09:58:27;;;;;;;21.70;11.27;;;;;;;5.97;100.00;99585.44;4955886;28;20207;-78
2022/11/26 10:00:57;;;;;;;19.40;12.27;;;;;;;6.06;100.00;99573.81;4955324;28;20809;-78
2022/11/26 10:03:29;;;;;;;21.87;13.50;;;;;;;6.09;100.00;99573.72;4955223;28;20216;-78
2022/11/26 10:05:59;;;;;;;18.00;11.10;;;;;;;6.12;100.00;99568.41;4954836;28;20221;-78
2022/11/26 10:08:59;;;;;;;22.23;13.03;;;;;;;6.17;100.00;99572.59;4954967;28;20234;-79
2022/11/26 10:11:34;;;;;;;18.23;10.83;;;;;;;6.16;100.00;99565.63;4931730;28;20215;-79
2022/11/26 10:14:15;;;;;;;19.33;10.80;;;;;;;6.21;100.00;99568.13;4955053;28;20215;-78
2022/11/26 10:16:47;;;;;;;23.20;12.50;;;;;;;6.30;100.00;99559.97;4954570;28;20444;-82
2022/11/26 10:19:21;;;;;;;23.80;11.70;;;;;;;6.33;100.00;99555.50;4954884;28;20235;-78
2022/11/26 10:21:52;;;;;;;20.77;11.93;;;;;;;6.36;100.00;99565.91;4954971;28;20212;-80
2022/11/26 10:24:26;;;;;;;18.63;11.47;;;;;;;6.41;100.00;99564.00;4955055;28;20406;-80
2022/11/26 10:26:54;;;;;;;20.67;12.07;;;;;;;6.50;100.00;99574.25;4954717;28;20238;-80
2022/11/26 10:29:25;;;;;;;25.83;12.90;;;;;;;6.55;100.00;99564.47;4954708;28;20713;-80
2022/11/26 10:31:57;;;;;;;19.80;12.63;;;;;;;6.65;100.00;99571.13;4954875;28;20219;-78
2022/11/26 10:34:29;;;;;;;29.27;15.27;;;;;;;6.76;100.00;99571.66;4954600;28;20678;-78
2022/11/26 10:36:56;;;;;;;26.37;15.37;;;;;;;6.93;100.00;99565.88;4954456;28;20665;-78
2022/11/26 10:39:22;;;;;;;31.60;15.83;;;;;;;7.18;100.00;99568.50;4954521;28;20243;-77
2022/11/26 10:41:49;;;;;;;30.60;14.73;;;;;;;7.42;100.00;99562.44;4954875;28;20585;-78
2022/11/26 10:44:32;;;;;;;35.27;17.70;;;;;;;7.68;100.00;99558.91;4954314;28;20685;-78
2022/11/26 10:47:00;;;;;;;25.40;15.70;;;;;;;7.85;100.00;99557.38;4954123;28;20231;-78
2022/11/26 10:49:28;;;;;;;30.70;15.93;;;;;;;7.96;100.00;99546.50;4954187;28;20231;-79
2022/11/26 10:51:58;;;;;;;27.03;14.47;;;;;;;8.05;100.00;99554.03;4954071;28;20226;-78
2022/11/26 10:54:29;;;;;;;24.37;12.63;;;;;;;8.11;100.00;99549.41;4954366;28;20209;-77
2022/11/26 10:57:04;;;;;;;21.20;11.43;;;;;;;8.18;100.00;99544.78;4954143;28;20218;-78
2022/11/26 10:59:39;;;;;;;20.77;11.50;;;;;;;8.21;100.00;99540.28;4954044;28;20714;-78
2022/11/26 11:02:22;;;;;;;24.83;12.77;;;;;;;8.21;100.00;99539.44;4953999;28;20258;-78
2022/11/26 11:04:50;;;;;;;22.77;12.93;;;;;;;8.34;100.00;99535.41;4954048;28;20215;-86
2022/11/26 11:07:29;;;;;;;26.77;13.87;;;;;;;8.49;100.00;99526.91;4953805;28;20726;-77
2022/11/26 11:10:02;;;;;;;24.13;13.20;;;;;;;8.53;100.00;99526.75;4954057;28;20231;-83
2022/11/26 11:12:29;;;;;;;25.00;12.20;;;;;;;8.61;100.00;99529.06;4954025;28;20227;-82
2022/11/26 11:15:18;;;;;;;23.80;12.60;;;;;;;8.61;100.00;99529.06;4954088;28;20294;-78
2022/11/26 11:17:46;;;;;;;20.33;11.17;;;;;;;8.64;100.00;99535.06;4953703;28;20214;-76
2022/11/26 11:20:33;;;;;;;19.43;11.00;;;;;;;8.62;100.00;99534.28;4953714;28;20237;-77
2022/11/26 11:23:06;;;;;;;20.93;9.93;;;;;;;8.65;100.00;99535.94;4953683;28;20684;-79
2022/11/26 11:25:35;;;;;;;19.30;10.23;;;;;;;8.65;100.00;99546.50;4953810;28;20220;-79
2022/11/26 11:28:06;;;;;;;22.93;8.93;;;;;;;8.68;100.00;99541.09;4953813;28;20238;-78
2022/11/26 11:30:36;;;;;;;16.60;10.07;;;;;;;8.75;100.00;99539.94;4953691;28;20583;-79
2022/11/26 11:33:12;;;;;;;15.83;9.90;;;;;;;8.80;100.00;99540.59;4953747;28;20228;-79
2022/11/26 11:35:38;;;;;;;15.50;8.23;;;;;;;8.82;100.00;99546.69;4953249;28;20675;-77
2022/11/26 11:38:05;;;;;;;15.60;8.27;;;;;;;8.84;100.00;99545.72;4953557;29;20662;-79
2022/11/26 11:40:41;;;;;;;15.47;7.30;;;;;;;8.80;100.00;99545.88;4953218;28;20239;-78
2022/11/26 11:43:16;;;;;;;11.63;7.07;;;;;;;8.83;100.00;99546.63;4953468;29;20772;-80
2022/11/26 11:45:55;;;;;;;13.37;6.90;;;;;;;8.86;100.00;99545.63;4953211;29;20222;-79
2022/11/26 11:48:32;;;;;;;14.70;6.63;;;;;;;8.78;100.00;99545.94;4953381;29;20242;-78
2022/11/26 11:51:10;;;;;;;12.90;6.47;;;;;;;8.63;100.00;99549.19;4953509;29;20223;-81
2022/11/26 11:53:47;;;;;;;11.67;6.33;;;;;;;8.41;100.00;99547.44;4953524;29;20223;-79
2022/11/26 11:56:24;;;;;;;9.93;5.23;;;;;;;8.23;100.00;99542.88;4952938;29;20215;-81
2022/11/26 11:59:13;;;;;;;8.17;5.43;;;;;;;8.14;100.00;99540.56;4953495;28;20243;-78
2022/11/26 12:01:57;;;;;;;13.87;5.30;;;;;;;8.06;100.00;99545.22;4953380;29;20259;-77
2022/11/26 12:04:40;;;;;;;11.20;5.40;;;;;;;8.09;100.00;99550.41;4953805;28;20212;-78
2022/11/26 12:07:38;;;;;;;12.43;4.63;;;;;;;8.24;100.00;99544.56;4957203;29;20236;-80
2022/11/26 12:10:12;;;;;;;9.67;4.73;;;;;;;8.44;100.00;99537.63;4957164;28;20736;-78
2022/11/26 12:12:44;;;;;;;7.60;4.33;;;;;;;8.62;100.00;99536.09;4957334;29;20307;-79
2022/11/26 12:15:17;;;;;;;10.43;3.90;;;;;;;8.72;100.00;99533.00;4957073;29;20212;-78
2022/11/26 12:17:50;;;;;;;8.87;4.10;;;;;;;8.72;100.00;99529.50;4956892;29;20219;-78
2022/11/26 12:20:24;;;;;;;9.07;4.23;;;;;;;8.75;100.00;99527.59;4956889;28;20722;-79
2022/11/26 12:22:57;;;;;;;12.00;4.22;;;;;;;8.83;100.00;99519.41;4956015;29;20439;-76
2022/11/26 12:25:30;;;;;;;7.97;3.60;;;;;;;8.68;100.00;99509.44;4956851;29;20237;-77
2022/11/26 12:28:00;;;;;;;7.57;3.20;;;;;;;8.59;100.00;99499.28;4956643;29;20232;-78
2022/11/26 12:30:35;;;;;;;7.13;2.73;;;;;;;8.44;100.00;99500.75;4956837;28;20235;-78
2022/11/26 12:33:11;;;;;;;5.93;2.90;;;;;;;8.30;100.00;99499.56;4956849;29;20215;-78
2022/11/26 12:35:42;;;;;;;6.20;2.77;;;;;;;8.18;100.00;99502.63;4956587;29;20212;-79
2022/11/26 12:38:14;;;;;;;11.33;5.87;;;;;;;8.12;100.00;99502.88;4956516;29;20211;-77
2022/11/26 12:40:46;;;;;;;6.70;2.93;;;;;;;8.04;100.00;99515.47;4956582;28;20245;-79
2022/11/26 12:43:19;;;;;;;6.68;3.58;;;;;;;8.13;100.00;99507.22;4955768;29;20443;-77
2022/11/26 12:45:51;;;;;;;8.13;3.50;;;;;;;8.14;100.00;99501.06;4956463;29;20239;-77
2022/11/26 12:48:41;;;;;;;5.13;3.00;;;;;;;8.05;100.00;99490.84;4956007;29;20235;-80
2022/11/26 12:51:19;;;;;;;8.50;3.60;;;;;;;8.10;100.00;99499.44;4956417;29;20207;-80
2022/11/26 12:53:52;;;;;;;7.67;4.87;;;;;;;8.13;100.00;99505.44;4956406;29;20215;-79
2022/11/26 12:56:23;;;;;;;9.93;6.20;;;;;;;8.18;100.00;99507.91;4956269;28;20217;-79
2022/11/26 12:59:01;;;;;;;12.50;6.47;;;;;;;8.27;100.00;99512.88;4956309;28;20216;-80
2022/11/26 13:01:28;;;;;;;12.97;5.53;;;;;;;8.31;100.00;99511.81;4956536;29;20217;-81
2022/11/26 13:03:57;;;;;;;12.57;5.70;;;;;;;8.31;100.00;99515.31;4956217;29;20298;-81
2022/11/26 13:06:39;;;;;;;14.20;5.57;;;;;;;8.25;100.00;99512.03;4955513;28;20224;-81
2022/11/26 13:09:21;;;;;;;15.93;6.30;;;;;;;8.21;100.00;99507.84;4956020;28;20244;-81
2022/11/26 13:11:56;;;;;;;11.80;5.80;;;;;;;8.22;100.00;99504.28;4957710;28;20238;-79
2022/11/26 13:14:31;;;;;;;12.03;5.93;;;;;;;8.15;100.00;99510.66;4957403;29;20215;-79
2022/11/26 13:17:02;;;;;;;12.30;5.67;;;;;;;8.07;100.00;99507.44;4957205;28;20316;-79
2022/11/26 13:19:34;;;;;;;10.47;5.63;;;;;;;8.05;100.00;99517.19;4956134;28;20231;-81
2022/11/26 13:22:20;;;;;;;12.77;5.97;;;;;;;8.00;100.00;99519.13;4956083;29;20216;-80
2022/11/26 13:25:01;;;;;;;13.07;5.40;;;;;;;7.93;100.00;99512.38;4956148;29;20216;-81
2022/11/26 13:27:48;;;;;;;11.37;5.50;;;;;;;7.91;100.00;99509.78;4955704;29;20235;-79
2022/11/26 13:30:21;;;;;;;11.43;6.03;;;;;;;7.86;100.00;99510.88;4955781;28;20322;-80
2022/11/26 13:33:17;;;;;;;7.63;4.83;;;;;;;7.80;100.00;99513.72;4955816;29;20227;-82
2022/11/26 13:36:16;;;;;;;9.73;5.53;;;;;;;7.75;100.00;99508.66;4955577;29;20208;-81
2022/11/26 13:38:54;;;;;;;12.47;5.63;;;;;;;7.71;100.00;99508.81;4955639;28;20215;-81
2022/11/26 13:41:42;;;;;;;12.50;5.80;;;;;;;7.71;100.00;99506.19;4955793;29;20208;-81
2022/11/26 13:44:25;;;;;;;8.67;4.70;;;;;;;7.60;100.00;99503.06;4948831;28;20220;-81
2022/11/26 13:46:57;;;;;;;11.30;5.47;;;;;;;7.51;100.00;99512.16;4955489;29;20202;-81
2022/11/26 13:49:32;;;;;;;7.33;4.80;;;;;;;7.53;100.00;99509.47;4955561;28;20239;-80
2022/11/26 13:52:05;;;;;;;10.03;4.67;;;;;;;7.51;100.00;99513.91;4955741;29;20215;-81
2022/11/26 13:54:36;;;;;;;9.90;4.23;;;;;;;7.45;100.00;99507.09;4955421;29;20213;-79
2022/11/26 13:57:07;;;;;;;6.47;4.80;;;;;;;7.46;100.00;99505.31;4955017;29;20216;-81
2022/11/26 13:59:35;;;;;;;6.77;4.43;;;;;;;7.42;100.00;99511.59;4955453;28;20239;-81
2022/11/26 14:02:35;;;;;;;9.67;4.40;;;;;;;7.38;100.00;99511.78;4955326;29;20212;-81
2022/11/26 14:05:03;;;;;;;6.80;3.60;;;;;;;7.30;100.00;99510.25;4955364;28;20296;-81
2022/11/26 14:07:31;;;;;;;9.57;4.70;;;;;;;7.30;100.00;99504.16;4954651;29;20258;-81
2022/11/26 14:09:59;;;;;;;14.87;5.57;;;;;;;7.46;100.00;99505.31;4954871;28;20710;-81
2022/11/26 14:12:59;;;;;;;10.57;5.03;;;;;;;7.53;100.00;99504.22;4955233;29;20291;-81
2022/11/26 14:15:57;;;;;;;15.10;5.60;;;;;;;7.58;100.00;99503.13;4954892;28;20678;-80
2022/11/26 14:18:57;;;;;;;11.40;5.83;;;;;;;7.63;100.00;99495.06;4954514;28;20216;-77
2022/11/26 14:21:24;;;;;;;11.27;5.90;;;;;;;7.64;100.00;99505.53;4954984;28;20278;-78
2022/11/26 14:23:54;;;;;;;13.83;6.07;;;;;;;7.68;100.00;99507.16;4955047;29;20243;-77
2022/11/26 14:26:26;;;;;;;16.30;6.87;;;;;;;7.59;100.00;99506.63;4954472;28;20598;-76
2022/11/26 14:29:00;;;;;;;18.77;6.23;;;;;;;7.65;100.00;99501.16;4954290;28;20246;-76
2022/11/26 14:31:29;;;;;;;16.30;5.53;;;;;;;7.68;100.00;99495.75;4954692;29;20211;-78
2022/11/26 14:34:00;;;;;;;10.27;5.23;;;;;;;7.71;100.00;99495.66;4954840;29;20568;-77
2022/11/26 14:36:29;;;;;;;11.17;5.53;;;;;;;7.70;100.00;99488.66;4954841;28;20212;-81
2022/11/26 14:39:11;;;;;;;10.90;5.23;;;;;;;7.74;100.00;99498.16;4955452;28;20236;-80
2022/11/26 14:41:51;;;;;;;10.33;5.13;;;;;;;7.66;100.00;99489.69;4954806;29;20671;-79
2022/11/26 14:44:19;;;;;;;9.43;5.23;;;;;;;7.67;100.00;99499.31;4954903;29;20559;-79
2022/11/26 14:46:47;;;;;;;10.67;5.00;;;;;;;7.55;100.00;99508.50;4954234;29;20219;-78
2022/11/26 14:49:18;;;;;;;12.97;5.10;;;;;;;7.46;100.00;99513.19;4954203;28;20235;-79
2022/11/26 14:51:47;;;;;;;14.10;6.20;;;;;;;7.43;100.00;99521.22;4950885;29;20273;-78
2022/11/26 14:54:22;;;;;;;7.90;4.87;;;;;;;7.37;100.00;99516.16;4951000;29;20333;-78
2022/11/26 14:56:49;;;;;;;10.80;5.27;;;;;;;7.42;100.00;99519.50;4950832;29;20238;-78
2022/11/26 14:59:17;;;;;;;12.33;5.27;;;;;;;7.38;100.00;99508.22;4951469;28;20542;-79
2022/11/26 15:01:45;;;;;;;10.10;4.47;;;;;;;7.36;100.00;99509.19;4951424;29;20216;-79
2022/11/26 15:04:23;;;;;;;10.10;5.83;;;;;;;7.30;100.00;99509.41;4951954;28;20242;-78
2022/11/26 15:06:49;;;;;;;9.47;5.87;;;;;;;7.28;100.00;99516.50;4951683;29;20226;-78
2022/11/26 15:09:20;;;;;;;9.87;5.97;;;;;;;7.22;100.00;99512.28;4951479;28;20246;-78
2022/11/26 15:11:50;;;;;;;13.10;6.00;;;;;;;7.15;100.00;99525.69;4952322;29;20298;-78
2022/11/26 15:14:22;;;;;;;16.00;7.00;;;;;;;7.06;100.00;99540.91;4952707;29;20225;-78
2022/11/26 15:16:55;;;;;;;11.77;5.97;;;;;;;6.90;100.00;99553.69;4952850;28;20227;-78
2022/11/26 15:19:22;;;;;;;12.80;5.83;;;;;;;6.76;100.00;99549.78;4952235;28;20228;-79
2022/11/26 15:21:49;;;;;;;17.87;7.13;;;;;;;6.68;100.00;99544.78;4952683;29;20572;-79
2022/11/26 15:24:18;;;;;;;10.07;5.80;;;;;;;6.52;100.00;99543.53;4952572;29;20631;-78
2022/11/26 15:26:47;;;;;;;10.33;6.00;;;;;;;6.40;100.00;99543.91;4952402;29;20243;-79
2022/11/26 15:29:34;;;;;;;12.87;6.43;;;;;;;6.34;100.00;99538.84;4952645;28;20702;-78
2022/11/26 15:32:01;;;;;;;12.63;6.80;;;;;;;6.32;100.00;99535.41;4951772;29;20227;-78
2022/11/26 15:34:31;;;;;;;16.37;7.37;;;;;;;6.36;100.00;99542.25;4951635;28;20222;-78
2022/11/26 15:36:57;;;;;;;14.07;7.17;;;;;;;6.30;100.00;99536.34;4951981;28;20214;-79
2022/11/26 15:39:28;;;;;;;16.97;8.63;;;;;;;6.22;100.00;99535.72;4968490;23;20444;-84
2022/11/26 15:41:58;;;;;;;19.87;8.73;;;;;;;6.18;100.00;99532.31;4972900;28;20305;-85
2022/11/26 15:44:27;;;;;;;19.27;9.57;;;;;;;6.21;100.00;99529.59;4972843;28;20211;-85
2022/11/26 15:46:57;;;;;;;16.47;9.53;;;;;;;6.26;100.00;99526.84;4972174;28;20219;-84
2022/11/26 15:49:27;;;;;;;13.63;9.40;;;;;;;6.16;100.00;99521.00;4968476;28;20855;-85
2022/11/26 15:51:58;;;;;;;19.27;9.73;;;;;;;6.08;100.00;99517.75;4953438;29;20222;-85
2022/11/26 15:54:29;;;;;;;14.43;9.33;;;;;;;6.00;100.00;99527.63;4953373;29;20222;-84
2022/11/26 15:56:57;;;;;;;21.87;11.83;;;;;;;6.14;100.00;99519.31;4953103;29;20225;-84
2022/11/26 15:59:26;;;;;;;14.50;8.93;;;;;;;5.96;100.00;99519.88;4953284;28;20236;-84
2022/11/26 16:01:53;;;;;;;14.63;8.50;;;;;;;5.84;100.00;99526.34;4953052;28;20237;-84
2022/11/26 16:04:38;;;;;;;21.33;10.73;;;;;;;5.75;100.00;99521.28;4953154;29;20215;-85
2022/11/26 16:07:09;;;;;;;16.93;8.47;;;;;;;5.63;100.00;99521.63;4952949;28;20281;-85
2022/11/26 16:09:37;;;;;;;18.67;9.97;;;;;;;5.57;100.00;99515.72;4952795;28;20234;-84
2022/11/26 16:12:04;;;;;;;18.07;10.47;;;;;;;5.54;100.00;99518.41;4953080;28;20653;-85
2022/11/26 16:14:33;;;;;;;25.07;12.63;;;;;;;5.49;100.00;99515.06;4952868;28;20309;-83
2022/11/26 16:17:04;;;;;;;20.43;10.83;;;;;;;5.48;100.00;99513.31;4953106;28;20564;-87
2022/11/26 16:19:31;;;;;;;20.43;11.70;;;;;;;5.48;100.00;99522.06;4953205;28;20234;-84
2022/11/26 16:22:02;;;;;;;19.77;10.93;;;;;;;5.41;100.00;99512.66;4953115;28;20215;-80
2022/11/26 16:24:32;;;;;;;20.53;10.80;;;;;;;5.35;100.00;99515.44;4952972;28;20217;-78
2022/11/26 16:27:03;;;;;;;21.30;10.77;;;;;;;5.40;100.00;99512.69;4952650;28;20207;-82
2022/11/26 16:29:31;;;;;;;16.37;10.43;;;;;;;5.37;100.00;99512.78;4953035;28;20326;-83
2022/11/26 16:31:58;;;;;;;22.87;12.67;;;;;;;5.40;100.00;99508.31;4952889;28;20221;-84
2022/11/26 16:34:26;;;;;;;19.53;11.83;;;;;;;5.40;100.00;99513.56;4952820;28;20634;-84
2022/11/26 16:37:00;;;;;;;21.67;11.43;;;;;;;5.31;100.00;99505.91;4952560;28;20638;-84
2022/11/26 16:39:27;;;;;;;20.90;10.53;;;;;;;5.19;100.00;99515.88;4952587;28;20233;-84
2022/11/26 16:41:53;;;;;;;21.63;10.80;;;;;;;5.13;100.00;99526.53;4952771;28;20216;-83
2022/11/26 16:44:21;;;;;;;23.97;13.03;;;;;;;5.10;100.00;99516.97;4953036;28;20214;-83
2022/11/26 16:46:51;;;;;;;22.13;11.10;;;;;;;5.02;100.00;99521.53;4952475;28;20218;-82
2022/11/26 16:49:17;;;;;;;25.17;12.87;;;;;;;5.02;100.00;99526.78;4952538;28;20240;-81
2022/11/26 16:51:44;;;;;;;23.23;13.00;;;;;;;4.97;100.00;99520.81;4955483;28;20589;-82
2022/11/26 16:54:14;;;;;;;24.60;12.87;;;;;;;4.95;100.00;99516.50;4955842;28;20705;-83
2022/11/26 16:56:41;;;;;;;23.93;12.37;;;;;;;4.94;100.00;99507.78;4955826;28;20680;-81
2022/11/26 16:59:18;;;;;;;24.20;12.40;;;;;;;4.94;100.00;99513.00;4956289;28;20219;-82
2022/11/26 17:01:46;;;;;;;26.17;13.47;;;;;;;4.92;100.00;99520.06;4956166;28;20214;-82
2022/11/26 17:04:13;;;;;;;27.17;13.47;;;;;;;4.87;100.00;99516.69;4956255;28;20221;-83
2022/11/26 17:06:40;;;;;;;21.53;14.10;;;;;;;4.85;100.00;99513.25;4955842;28;20212;-82
2022/11/26 17:09:15;;;;;;;21.97;12.93;;;;;;;4.86;100.00;99514.97;4956041;28;20233;-80
2022/11/26 17:11:42;;;;;;;24.03;13.10;;;;;;;4.80;100.00;99515.13;4956273;28;20220;-80
2022/11/26 17:14:10;;;;;;;25.53;11.40;;;;;;;4.75;100.00;99513.50;4955907;28;20222;-80
2022/11/26 17:16:39;;;;;;;31.77;13.80;;;;;;;4.72;100.00;99506.59;4955690;28;20216;-80
2022/11/26 17:19:12;;;;;;;25.43;13.83;;;;;;;4.72;100.00;99514.47;4955794;28;20213;-81
2022/11/26 17:21:38;;;;;;;22.67;13.87;;;;;;;4.74;100.00;99511.78;4955956;28;20228;-80
2022/11/26 17:24:05;;;;;;;27.37;16.80;;;;;;;4.75;100.00;99506.50;4954607;28;20217;-80
2022/11/26 17:26:31;;;;;;;26.77;16.00;;;;;;;4.81;100.00;99518.59;4951813;28;20211;-80
2022/11/26 17:28:58;;;;;;;32.00;15.73;;;;;;;4.76;100.00;99517.84;4954167;29;20237;-80
2022/11/26 17:31:24;;;;;;;28.87;16.27;;;;;;;4.76;100.00;99517.84;4955187;28;20239;-79
2022/11/26 17:33:52;;;;;;;26.40;15.43;;;;;;;4.73;100.00;99521.41;4953328;28;20225;-79
2022/11/26 17:36:22;;;;;;;32.63;16.23;;;;;;;4.71;100.00;99528.41;4953807;29;20240;-80
2022/11/26 17:38:49;;;;;;;25.03;14.13;;;;;;;4.66;100.00;99525.06;4955227;29;20209;-80
2022/11/26 17:41:16;;;;;;;28.23;15.43;;;;;;;4.65;100.00;99525.09;4954727;28;20241;-80
2022/11/26 17:43:42;;;;;;;28.13;16.10;;;;;;;4.64;100.00;99524.22;4954711;29;20224;-80
2022/11/26 17:46:13;;;;;;;32.70;17.43;;;;;;;4.70;100.00;99524.09;4954305;29;20537;-80
2022/11/26 17:48:40;;;;;;;31.80;17.13;;;;;;;4.72;100.00;99521.44;4954506;29;20241;-80
2022/11/26 17:51:06;;;;;;;29.00;14.87;;;;;;;4.65;100.00;99520.72;4954543;28;20245;-80
2022/11/26 17:53:34;;;;;;;28.30;14.80;;;;;;;4.59;100.00;99526.09;4954326;29;20220;-80
2022/11/26 17:56:01;;;;;;;31.30;16.30;;;;;;;4.53;100.00;99526.22;4954221;28;20215;-80
2022/11/26 17:58:27;;;;;;;34.37;18.47;;;;;;;4.62;100.00;99523.41;4954391;29;20214;-80
2022/11/26 18:00:54;;;;;;;35.03;17.90;;;;;;;4.60;100.00;99525.22;4954600;29;20233;-82
2022/11/26 18:03:20;;;;;;;24.97;14.27;;;;;;;4.50;100.00;99531.56;4954273;28;20250;-82
2022/11/26 18:05:47;;;;;;;27.10;14.43;;;;;;;4.39;100.00;99538.78;4954599;29;20213;-81
2022/11/26 18:08:13;;;;;;;25.57;14.13;;;;;;;4.30;100.00;99538.13;4954971;29;20231;-82
2022/11/26 18:10:41;;;;;;;21.83;14.17;;;;;;;4.21;100.00;99533.94;4954544;28;20308;-82
2022/11/26 18:13:07;;;;;;;26.63;15.47;;;;;;;4.11;100.00;99527.22;4954736;28;20217;-79
2022/11/26 18:15:34;;;;;;;24.37;14.30;;;;;;;4.01;100.00;99530.91;4955028;29;20212;-79
2022/11/26 18:18:00;;;;;;;26.70;16.37;;;;;;;3.93;100.00;99531.97;4954007;29;20228;-79
2022/11/26 18:20:28;;;;;;;26.77;13.63;;;;;;;3.85;100.00;99529.50;4954741;29;20321;-79
2022/11/26 18:22:58;;;;;;;23.13;13.33;;;;;;;3.77;100.00;99528.78;4954201;29;20588;-79
2022/11/26 18:25:25;;;;;;;20.67;12.27;;;;;;;3.71;100.00;99528.03;4954673;28;20219;-79
2022/11/26 18:27:53;;;;;;;24.67;14.47;;;;;;;3.66;100.00;99527.31;4954165;29;20209;-79
2022/11/26 18:30:20;;;;;;;23.67;12.83;;;;;;;3.60;100.00;99530.88;4954651;28;20261;-79
2022/11/26 18:32:47;;;;;;;27.70;17.03;;;;;;;3.56;100.00;99528.34;4954326;29;20239;-79
2022/11/26 18:35:14;;;;;;;29.47;16.70;;;;;;;3.57;100.00;99522.22;4954175;28;20307;-79
2022/11/26 18:37:41;;;;;;;29.10;17.57;;;;;;;3.58;100.00;99519.59;4954015;29;20283;-79
2022/11/26 18:40:12;;;;;;;33.07;17.57;;;;;;;3.59;100.00;99525.66;4953474;28;20235;-80
2022/11/26 18:42:38;;;;;;;26.47;14.77;;;;;;;3.54;100.00;99533.59;4954145;29;20209;-80
2022/11/26 18:45:09;;;;;;;30.50;16.57;;;;;;;3.56;100.00;99537.03;4953882;29;20235;-80
2022/11/26 18:47:36;;;;;;;29.83;15.97;;;;;;;3.62;100.00;99539.53;4963453;29;20223;-80
2022/11/26 18:50:03;;;;;;;31.33;16.03;;;;;;;3.51;100.00;99527.56;4965562;29;20264;-80
2022/11/26 18:52:29;;;;;;;26.93;15.53;;;;;;;3.42;100.00;99536.44;4967007;29;20213;-82
2022/11/26 18:54:56;;;;;;;32.07;15.67;;;;;;;3.36;100.00;99539.19;4967214;29;20594;-84
2022/11/26 18:57:26;;;;;;;25.80;14.33;;;;;;;3.34;100.00;99530.53;4957021;29;20217;-79
2022/11/26 18:59:55;;;;;;;23.63;13.90;;;;;;;3.31;100.00;99530.56;4960504;29;20247;-78
2022/11/26 19:02:26;;;;;;;24.23;13.27;;;;;;;3.26;100.00;99532.41;4958607;29;20215;-79
2022/11/26 19:04:52;;;;;;;27.37;15.70;;;;;;;3.20;100.00;99532.53;4959067;28;20219;-79
2022/11/26 19:07:19;;;;;;;22.67;15.60;;;;;;;3.20;100.00;99532.53;4961523;28;20216;-83
2022/11/26 19:09:45;;;;;;;19.17;13.30;;;;;;;3.17;100.00;99527.34;4964339;29;20240;-80
2022/11/26 19:12:12;;;;;;;20.50;13.10;;;;;;;3.13;100.00;99517.81;4960754;29;20207;-79
2022/11/26 19:14:39;;;;;;;20.10;12.43;;;;;;;3.09;100.00;99521.41;4963222;28;20208;-81
2022/11/26 19:17:07;;;;;;;19.20;11.80;;;;;;;3.02;100.00;99516.31;4964552;29;20218;-84
2022/11/26 19:19:37;;;;;;;24.20;14.87;;;;;;;2.99;100.00;99509.38;4962570;29;20235;-78
2022/11/26 19:22:04;;;;;;;21.50;13.10;;;;;;;3.00;100.00;99511.09;4961136;28;20212;-77
2022/11/26 19:24:30;;;;;;;21.13;12.27;;;;;;;2.96;100.00;99512.06;4961163;29;20216;-79
2022/11/26 19:26:57;;;;;;;17.43;11.73;;;;;;;2.95;100.00;99515.53;4959417;29;20207;-79
2022/11/26 19:29:24;;;;;;;17.53;11.53;;;;;;;2.92;100.00;99510.38;4962401;29;20239;-80
2022/11/26 19:31:50;;;;;;;25.30;15.37;;;;;;;2.99;100.00;99513.75;4963251;29;20211;-80
2022/11/26 19:34:17;;;;;;;21.40;12.13;;;;;;;2.98;100.00;99515.50;4965031;28;20226;-82
2022/11/26 19:36:47;;;;;;;24.53;14.70;;;;;;;2.96;100.00;99508.56;4966099;29;20208;-82
2022/11/26 19:39:13;;;;;;;32.53;18.97;;;;;;;2.96;100.00;99501.63;4958065;28;20212;-83
2022/11/26 19:41:40;;;;;;;27.37;15.97;;;;;;;2.95;100.00;99499.03;4954924;29;20219;-85
2022/11/26 19:44:06;;;;;;;25.57;15.43;;;;;;;2.92;100.00;99492.09;4953955;28;20212;-83
2022/11/26 19:46:35;;;;;;;19.93;13.60;;;;;;;2.95;100.00;99489.41;4953570;29;20213;-81
2022/11/26 19:49:02;;;;;;;20.37;13.63;;;;;;;2.92;100.00;99492.09;4953610;29;20211;-85
2022/11/26 19:51:28;;;;;;;23.73;15.00;;;;;;;2.85;100.00;99482.66;4956487;28;20673;-82
2022/11/26 19:53:56;;;;;;;19.67;13.60;;;;;;;2.83;100.00;99486.19;4972804;28;20211;-83
2022/11/26 19:56:25;;;;;;;21.50;13.77;;;;;;;2.81;100.00;99485.34;4971956;28;20220;-83
2022/11/26 19:58:53;;;;;;;21.80;14.17;;;;;;;2.70;100.00;99482.91;4972407;28;20211;-80
2022/11/26 20:01:21;;;;;;;25.70;15.70;;;;;;;2.72;100.00;99480.25;4972454;28;20673;-83
2022/11/26 20:03:48;;;;;;;23.53;13.70;;;;;;;2.69;100.00;99470.72;4972437;28;20211;-83
2022/11/26 20:06:17;;;;;;;21.40;13.10;;;;;;;2.65;100.00;99479.53;4972316;28;20222;-82
2022/11/26 20:08:46;;;;;;;26.33;16.30;;;;;;;2.60;100.00;99470.91;4972545;28;20218;-82
2022/11/26 20:11:15;;;;;;;25.27;16.30;;;;;;;2.56;100.00;99477.03;4972226;28;20240;-83
2022/11/26 20:13:46;;;;;;;24.83;14.57;;;;;;;2.55;100.00;99483.16;4972443;28;20216;-85
2022/11/26 20:16:15;;;;;;;23.73;14.07;;;;;;;2.52;100.00;99466.69;4971340;28;20214;-84
2022/11/26 20:18:42;;;;;;;15.10;11.13;;;;;;;2.47;100.00;99469.38;4971247;28;20217;-84
2022/11/26 20:21:11;;;;;;;20.27;12.70;;;;;;;2.45;100.00;99478.13;4971927;28;20226;-83
2022/11/26 20:23:38;;;;;;;28.47;16.43;;;;;;;2.56;100.00;99474.44;4971832;28;20211;-84
2022/11/26 20:26:13;;;;;;;27.90;16.50;;;;;;;2.63;100.00;99476.06;4973941;28;20218;-83
2022/11/26 20:28:40;;;;;;;25.30;14.77;;;;;;;2.60;100.00;99481.34;4975505;28;20210;-84
2022/11/26 20:31:07;;;;;;;25.03;16.70;;;;;;;2.51;100.00;99476.25;4976045;28;20321;-85
2022/11/26 20:33:34;;;;;;;18.80;13.93;;;;;;;2.50;100.00;99482.38;4976286;28;20210;-85
2022/11/26 20:36:04;;;;;;;23.53;15.67;;;;;;;2.45;100.00;99471.13;4975395;28;20206;-83
2022/11/26 20:38:30;;;;;;;17.27;12.37;;;;;;;2.38;100.00;99473.88;4975938;28;20207;-84
2022/11/26 20:40:57;;;;;;;19.73;12.97;;;;;;;2.33;100.00;99471.31;4975018;28;20234;-83
2022/11/26 20:43:23;;;;;;;23.60;12.83;;;;;;;2.26;100.00;99479.28;4975873;28;20214;-84
2022/11/26 20:45:59;;;;;;;19.50;13.53;;;;;;;2.24;100.00;99474.09;4975080;28;20595;-85
2022/11/26 20:48:25;;;;;;;19.33;13.10;;;;;;;2.22;100.00;99473.25;4975774;28;20220;-85
2022/11/26 20:50:52;;;;;;;18.40;13.37;;;;;;;2.19;100.00;99468.06;4975402;28;20241;-83
2022/11/26 20:53:18;;;;;;;19.70;12.90;;;;;;;2.12;100.00;99465.56;4975118;28;20211;-83
2022/11/26 20:55:51;;;;;;;15.50;11.37;;;;;;;2.07;100.00;99468.25;4975666;28;20213;-83
2022/11/26 20:58:18;;;;;;;15.30;10.80;;;;;;;2.02;100.00;99464.00;4975128;28;20222;-84
2022/11/26 21:00:45;;;;;;;12.43;9.97;;;;;;;1.92;100.00;99471.09;4975569;28;20249;-84
2022/11/26 21:03:13;;;;;;;13.77;10.97;;;;;;;1.90;100.00;99470.22;4974840;28;20219;-83
2022/11/26 21:05:39;;;;;;;14.10;9.93;;;;;;;1.90;100.00;99462.41;4975394;28;20233;-84